Aérodrome :
LOGIN :

S'inscrire | Disclaimer

   EN    FR    IT 

 










Légende :    VFR   VFR Marginal   IFR   IFR Intensif   IFR Très Intensif
Visi : 
Plafond : 
>= 8 km
>= 3000ft
5 à 8 km
1000 à 3000 ft
1500m à 5 km
500 à 1000 ft
800 à 1500m
200 à 500 ft
< 800m
< 200 ft
Symboles :   Orages  Brouillard  Fortes neiges  Fortes précipitations  Vent > 20 kt
SIGMETs :   Divers  Orages  Givrage  Turbulence  Onde Orograph.  Cendres Volcan.







- Altitude de l'aérodrome : 242 ft
- Code IATA : DUB


EIDW - Dublin

DERNIER METAR :
  • 211300Z 27009KT 230V300 9999 FEW013 BKN023 BKN140 18/12 Q1016 NOSIG

METARs EXPIRÉS :
  • 211230Z 28009KT 260V320 9999 FEW013 BKN023 BKN140 18/12 Q1016 NOSIG
  • 211200Z 28009KT 240V320 9999 FEW013 BKN023 BKN140 18/12 Q1016 NOSIG
  • 211130Z 27008KT 230V300 9999 FEW013 BKN021 BKN140 17/11 Q1016 NOSIG
  • 211100Z 29009KT 240V320 9999 FEW013 BKN021 BKN140 16/11 Q1016 NOSIG
  • 211030Z 28010KT 9999 FEW013 BKN020 BKN140 16/12 Q1016 NOSIG

TAF TAF EIDW
Valide du 21 à 12h jusqu'au 22 à 12h UTC


211100Z 2112/2212 29008KT 9999 BKN020
BECMG 2114/2116 14010KT
BECMG 2121/2124 30005KT
PROB30
TEMPO 2203/2209 BKN012
BECMG 2205/2208 26010KT
Pas de NOTAMs connus pour ce terrain.



MET'MAP, la Météo Aéronautique d'un coup d'oeil ! - Copyright ORBIFLY Décembre 2007 - Disclaimer

ORBIFLY MET'MAP TEAM :

Programmation & Développement : Alexandra Zaïnal
Conception & Développement : Baudouin d'Aumeries
Co-Programmation & Développement : Marc-Olivier Méhu
Soutien technique & logistique : Manuel Goepfert

Contact : metmap@orbifly.com




SOURCES & CREDITS :

   NOAA